sim
Sign-in with your pilot id or email,
or register
Callsign
Passwort

Schedule Details

Flight Number: RYR16 (4)
Departure: Athens Eleftherios Venizelos (LGAV) at 17:20
Arrival: Thessaloniki International Airport (LGTS) at 18:20
Route: Ryanair Passenger Schedule. Enter filed route here before submitting Pirep.

Weather Information
Getting current METAR information for LGAV 192250Z 01005KT 330V030 9999 FEW030 BKN070 10/05 Q1023 NOSIG
Getting current METAR information for LGTS 192250Z 15005KT 9999 FEW020 13/09 Q1023 NOSIG

Schedule Frequency

Route Map